sensor_id;sensor_type;location;lat;lon;timestamp;temperature;humidity
23873;DHT22;42884;50.718;4.630;2023-11-21T00:01:40;11.40;99.90
23873;DHT22;42884;50.718;4.630;2023-11-21T00:04:05;11.40;99.90
23873;DHT22;42884;50.718;4.630;2023-11-21T00:06:32;11.40;99.90
23873;DHT22;42884;50.718;4.630;2023-11-21T00:08:58;11.40;99.90
23873;DHT22;42884;50.718;4.630;2023-11-21T00:11:26;11.30;99.90
23873;DHT22;42884;50.718;4.630;2023-11-21T00:13:52;11.40;99.90
23873;DHT22;42884;50.718;4.630;2023-11-21T00:16:20;11.40;99.90
23873;DHT22;42884;50.718;4.630;2023-11-21T00:18:47;11.40;99.90
23873;DHT22;42884;50.718;4.630;2023-11-21T00:21:16;11.40;99.90
23873;DHT22;42884;50.718;4.630;2023-11-21T00:23:42;11.40;99.90
23873;DHT22;42884;50.718;4.630;2023-11-21T00:26:08;11.40;99.90
23873;DHT22;42884;50.718;4.630;2023-11-21T00:28:33;11.40;99.90
23873;DHT22;42884;50.718;4.630;2023-11-21T00:30:59;11.40;99.90
23873;DHT22;42884;50.718;4.630;2023-11-21T00:33:24;11.40;99.90
23873;DHT22;42884;50.718;4.630;2023-11-21T00:35:50;11.40;99.90
23873;DHT22;42884;50.718;4.630;2023-11-21T00:38:16;11.40;99.90
23873;DHT22;42884;50.718;4.630;2023-11-21T00:40:45;11.30;99.90
23873;DHT22;42884;50.718;4.630;2023-11-21T00:43:10;11.30;99.90
23873;DHT22;42884;50.718;4.630;2023-11-21T00:45:36;11.30;99.90
23873;DHT22;42884;50.718;4.630;2023-11-21T00:48:02;11.30;99.90
23873;DHT22;42884;50.718;4.630;2023-11-21T00:50:30;11.30;99.90
23873;DHT22;42884;50.718;4.630;2023-11-21T00:52:56;11.30;99.90
23873;DHT22;42884;50.718;4.630;2023-11-21T00:55:21;11.30;99.90
23873;DHT22;42884;50.718;4.630;2023-11-21T00:57:48;11.20;99.90
23873;DHT22;42884;50.718;4.630;2023-11-21T01:00:13;11.20;99.90
23873;DHT22;42884;50.718;4.630;2023-11-21T01:02:45;11.30;99.90
23873;DHT22;42884;50.718;4.630;2023-11-21T01:05:10;11.20;99.90
23873;DHT22;42884;50.718;4.630;2023-11-21T01:07:36;11.00;99.90
23873;DHT22;42884;50.718;4.630;2023-11-21T01:10:02;11.00;99.90
23873;DHT22;42884;50.718;4.630;2023-11-21T01:12:28;11.00;99.90
23873;DHT22;42884;50.718;4.630;2023-11-21T01:14:54;11.00;99.90
23873;DHT22;42884;50.718;4.630;2023-11-21T01:17:20;11.10;99.90
23873;DHT22;42884;50.718;4.630;2023-11-21T01:19:47;11.10;99.90
23873;DHT22;42884;50.718;4.630;2023-11-21T01:22:13;11.10;99.90
23873;DHT22;42884;50.718;4.630;2023-11-21T01:24:39;11.10;99.90
23873;DHT22;42884;50.718;4.630;2023-11-21T01:27:04;11.10;99.90
23873;DHT22;42884;50.718;4.630;2023-11-21T01:29:33;11.10;99.90
23873;DHT22;42884;50.718;4.630;2023-11-21T01:31:59;11.10;99.90
23873;DHT22;42884;50.718;4.630;2023-11-21T01:34:25;11.10;99.90
23873;DHT22;42884;50.718;4.630;2023-11-21T01:36:51;11.10;99.90
23873;DHT22;42884;50.718;4.630;2023-11-21T01:39:16;11.10;99.90
23873;DHT22;42884;50.718;4.630;2023-11-21T01:41:49;11.00;99.90
23873;DHT22;42884;50.718;4.630;2023-11-21T01:44:15;11.00;99.90
23873;DHT22;42884;50.718;4.630;2023-11-21T01:46:42;11.00;99.90
23873;DHT22;42884;50.718;4.630;2023-11-21T01:49:08;11.00;99.90
23873;DHT22;42884;50.718;4.630;2023-11-21T01:51:35;11.00;99.90
23873;DHT22;42884;50.718;4.630;2023-11-21T01:54:02;11.00;99.90
23873;DHT22;42884;50.718;4.630;2023-11-21T01:56:30;10.90;99.90
23873;DHT22;42884;50.718;4.630;2023-11-21T01:58:57;10.90;99.90
23873;DHT22;42884;50.718;4.630;2023-11-21T02:01:22;10.90;99.90
23873;DHT22;42884;50.718;4.630;2023-11-21T02:03:48;10.80;99.90
23873;DHT22;42884;50.718;4.630;2023-11-21T02:06:16;10.80;99.90
23873;DHT22;42884;50.718;4.630;2023-11-21T02:08:42;10.80;99.90
23873;DHT22;42884;50.718;4.630;2023-11-21T02:11:09;10.80;99.90
23873;DHT22;42884;50.718;4.630;2023-11-21T02:13:38;10.80;99.90
23873;DHT22;42884;50.718;4.630;2023-11-21T02:16:04;10.80;99.90
23873;DHT22;42884;50.718;4.630;2023-11-21T02:18:31;10.80;99.90
23873;DHT22;42884;50.718;4.630;2023-11-21T02:20:57;10.80;99.90
23873;DHT22;42884;50.718;4.630;2023-11-21T02:23:22;10.80;99.90
23873;DHT22;42884;50.718;4.630;2023-11-21T02:25:48;10.80;99.90
23873;DHT22;42884;50.718;4.630;2023-11-21T02:28:14;10.80;99.90
23873;DHT22;42884;50.718;4.630;2023-11-21T02:30:41;10.80;99.90
23873;DHT22;42884;50.718;4.630;2023-11-21T02:33:07;10.80;99.90
23873;DHT22;42884;50.718;4.630;2023-11-21T02:35:33;10.90;99.90
23873;DHT22;42884;50.718;4.630;2023-11-21T02:38:00;10.90;99.90
23873;DHT22;42884;50.718;4.630;2023-11-21T02:40:26;10.90;99.90
23873;DHT22;42884;50.718;4.630;2023-11-21T02:42:51;10.90;99.90
23873;DHT22;42884;50.718;4.630;2023-11-21T02:45:18;10.90;99.90
23873;DHT22;42884;50.718;4.630;2023-11-21T02:47:44;10.90;99.90
23873;DHT22;42884;50.718;4.630;2023-11-21T02:50:10;10.90;99.90
23873;DHT22;42884;50.718;4.630;2023-11-21T02:55:38;10.90;99.90
23873;DHT22;42884;50.718;4.630;2023-11-21T02:58:04;10.90;99.90
23873;DHT22;42884;50.718;4.630;2023-11-21T03:00:30;10.90;99.90
23873;DHT22;42884;50.718;4.630;2023-11-21T03:02:55;10.90;99.90
23873;DHT22;42884;50.718;4.630;2023-11-21T03:05:21;10.80;99.90
23873;DHT22;42884;50.718;4.630;2023-11-21T03:07:47;10.80;99.90
23873;DHT22;42884;50.718;4.630;2023-11-21T03:10:12;10.80;99.90
23873;DHT22;42884;50.718;4.630;2023-11-21T03:12:38;10.70;99.90
23873;DHT22;42884;50.718;4.630;2023-11-21T03:15:07;10.70;99.90
23873;DHT22;42884;50.718;4.630;2023-11-21T03:17:32;10.70;99.90
23873;DHT22;42884;50.718;4.630;2023-11-21T03:20:01;10.70;99.90
23873;DHT22;42884;50.718;4.630;2023-11-21T03:22:29;10.80;99.90
23873;DHT22;42884;50.718;4.630;2023-11-21T03:24:55;10.80;99.90
23873;DHT22;42884;50.718;4.630;2023-11-21T03:27:20;10.70;99.90
23873;DHT22;42884;50.718;4.630;2023-11-21T03:29:48;10.80;99.90
23873;DHT22;42884;50.718;4.630;2023-11-21T03:32:13;10.80;99.90
23873;DHT22;42884;50.718;4.630;2023-11-21T03:34:55;10.80;99.90
23873;DHT22;42884;50.718;4.630;2023-11-21T03:37:24;10.80;99.90
23873;DHT22;42884;50.718;4.630;2023-11-21T03:39:52;10.80;99.90
23873;DHT22;42884;50.718;4.630;2023-11-21T03:42:20;10.80;99.90
23873;DHT22;42884;50.718;4.630;2023-11-21T03:44:46;10.80;99.90
23873;DHT22;42884;50.718;4.630;2023-11-21T03:47:11;10.80;99.90
23873;DHT22;42884;50.718;4.630;2023-11-21T03:49:37;10.90;99.90
23873;DHT22;42884;50.718;4.630;2023-11-21T03:52:03;10.90;99.90
23873;DHT22;42884;50.718;4.630;2023-11-21T03:54:29;10.90;99.90
23873;DHT22;42884;50.718;4.630;2023-11-21T03:56:55;10.90;99.90
23873;DHT22;42884;50.718;4.630;2023-11-21T03:59:21;10.90;99.90
23873;DHT22;42884;50.718;4.630;2023-11-21T04:01:49;10.90;99.90
23873;DHT22;42884;50.718;4.630;2023-11-21T04:04:15;10.90;99.90
23873;DHT22;42884;50.718;4.630;2023-11-21T04:06:41;10.90;99.90
23873;DHT22;42884;50.718;4.630;2023-11-21T04:09:07;10.90;99.90
23873;DHT22;42884;50.718;4.630;2023-11-21T04:11:32;10.90;99.90
23873;DHT22;42884;50.718;4.630;2023-11-21T04:13:58;10.90;99.90
23873;DHT22;42884;50.718;4.630;2023-11-21T04:16:24;10.90;99.90
23873;DHT22;42884;50.718;4.630;2023-11-21T04:18:50;10.90;99.90
23873;DHT22;42884;50.718;4.630;2023-11-21T04:21:16;10.90;99.90
23873;DHT22;42884;50.718;4.630;2023-11-21T04:23:41;11.00;99.90
23873;DHT22;42884;50.718;4.630;2023-11-21T04:26:07;10.90;99.90
23873;DHT22;42884;50.718;4.630;2023-11-21T04:28:33;10.90;99.90
23873;DHT22;42884;50.718;4.630;2023-11-21T04:30:58;10.90;99.90
23873;DHT22;42884;50.718;4.630;2023-11-21T04:33:24;10.90;99.90
23873;DHT22;42884;50.718;4.630;2023-11-21T04:35:50;10.90;99.90
23873;DHT22;42884;50.718;4.630;2023-11-21T04:38:16;10.90;99.90
23873;DHT22;42884;50.718;4.630;2023-11-21T04:40:42;10.90;99.90
23873;DHT22;42884;50.718;4.630;2023-11-21T04:43:08;10.90;99.90
23873;DHT22;42884;50.718;4.630;2023-11-21T04:45:34;10.90;99.90
23873;DHT22;42884;50.718;4.630;2023-11-21T04:47:59;10.90;99.90
23873;DHT22;42884;50.718;4.630;2023-11-21T04:50:25;10.90;99.90
23873;DHT22;42884;50.718;4.630;2023-11-21T04:52:52;10.90;99.90
23873;DHT22;42884;50.718;4.630;2023-11-21T04:55:18;10.90;99.90
23873;DHT22;42884;50.718;4.630;2023-11-21T04:57:44;10.90;99.90
23873;DHT22;42884;50.718;4.630;2023-11-21T05:00:11;10.90;99.90
23873;DHT22;42884;50.718;4.630;2023-11-21T05:02:38;10.90;99.90
23873;DHT22;42884;50.718;4.630;2023-11-21T05:05:03;10.90;99.90
23873;DHT22;42884;50.718;4.630;2023-11-21T05:07:31;10.90;99.90
23873;DHT22;42884;50.718;4.630;2023-11-21T05:09:57;10.90;99.90
23873;DHT22;42884;50.718;4.630;2023-11-21T05:12:23;10.90;99.90
23873;DHT22;42884;50.718;4.630;2023-11-21T05:14:49;10.90;99.90
23873;DHT22;42884;50.718;4.630;2023-11-21T05:17:15;10.90;99.90
23873;DHT22;42884;50.718;4.630;2023-11-21T05:19:41;11.00;99.90
23873;DHT22;42884;50.718;4.630;2023-11-21T05:22:06;10.90;99.90
23873;DHT22;42884;50.718;4.630;2023-11-21T05:24:33;10.90;99.90
23873;DHT22;42884;50.718;4.630;2023-11-21T05:27:00;11.00;99.90
23873;DHT22;42884;50.718;4.630;2023-11-21T05:29:26;11.00;99.90
23873;DHT22;42884;50.718;4.630;2023-11-21T05:31:52;11.00;99.90
23873;DHT22;42884;50.718;4.630;2023-11-21T05:34:18;11.00;99.90
23873;DHT22;42884;50.718;4.630;2023-11-21T05:36:44;11.00;99.90
23873;DHT22;42884;50.718;4.630;2023-11-21T05:39:13;11.00;99.90
23873;DHT22;42884;50.718;4.630;2023-11-21T05:41:39;11.00;99.90
23873;DHT22;42884;50.718;4.630;2023-11-21T05:44:04;11.00;99.90
23873;DHT22;42884;50.718;4.630;2023-11-21T05:46:30;11.00;99.90
23873;DHT22;42884;50.718;4.630;2023-11-21T05:48:56;11.10;99.90
23873;DHT22;42884;50.718;4.630;2023-11-21T05:51:22;11.10;99.90
23873;DHT22;42884;50.718;4.630;2023-11-21T05:53:47;11.10;99.90
23873;DHT22;42884;50.718;4.630;2023-11-21T05:56:13;11.10;99.90
23873;DHT22;42884;50.718;4.630;2023-11-21T05:58:39;11.10;99.90
23873;DHT22;42884;50.718;4.630;2023-11-21T06:01:05;11.10;99.90
23873;DHT22;42884;50.718;4.630;2023-11-21T06:03:33;11.10;99.90
23873;DHT22;42884;50.718;4.630;2023-11-21T06:05:58;11.10;99.90
23873;DHT22;42884;50.718;4.630;2023-11-21T06:08:24;11.10;99.90
23873;DHT22;42884;50.718;4.630;2023-11-21T06:10:50;11.10;99.90
23873;DHT22;42884;50.718;4.630;2023-11-21T06:13:15;11.20;99.90
23873;DHT22;42884;50.718;4.630;2023-11-21T06:15:41;11.10;99.90
23873;DHT22;42884;50.718;4.630;2023-11-21T06:18:10;11.10;99.90
23873;DHT22;42884;50.718;4.630;2023-11-21T06:20:38;11.10;99.90
23873;DHT22;42884;50.718;4.630;2023-11-21T06:23:04;11.10;99.90
23873;DHT22;42884;50.718;4.630;2023-11-21T06:25:31;11.20;99.90
23873;DHT22;42884;50.718;4.630;2023-11-21T06:27:58;11.20;99.90
23873;DHT22;42884;50.718;4.630;2023-11-21T06:30:24;11.20;99.90
23873;DHT22;42884;50.718;4.630;2023-11-21T06:32:50;11.20;99.90
23873;DHT22;42884;50.718;4.630;2023-11-21T06:35:16;11.20;99.90
23873;DHT22;42884;50.718;4.630;2023-11-21T06:37:42;11.20;99.90
23873;DHT22;42884;50.718;4.630;2023-11-21T06:40:12;11.20;99.90
23873;DHT22;42884;50.718;4.630;2023-11-21T06:42:40;11.20;99.90
23873;DHT22;42884;50.718;4.630;2023-11-21T06:45:06;11.20;99.90
23873;DHT22;42884;50.718;4.630;2023-11-21T06:47:32;11.20;99.90
23873;DHT22;42884;50.718;4.630;2023-11-21T06:49:59;11.30;99.90
23873;DHT22;42884;50.718;4.630;2023-11-21T06:52:25;11.30;99.90
23873;DHT22;42884;50.718;4.630;2023-11-21T06:54:51;11.30;99.90
23873;DHT22;42884;50.718;4.630;2023-11-21T06:57:16;11.20;99.90
23873;DHT22;42884;50.718;4.630;2023-11-21T06:59:42;11.30;99.90
23873;DHT22;42884;50.718;4.630;2023-11-21T07:02:08;11.30;99.90
23873;DHT22;42884;50.718;4.630;2023-11-21T07:04:35;11.30;99.90
23873;DHT22;42884;50.718;4.630;2023-11-21T07:07:02;11.30;99.90
23873;DHT22;42884;50.718;4.630;2023-11-21T07:09:27;11.30;99.90
23873;DHT22;42884;50.718;4.630;2023-11-21T07:11:53;11.30;99.90
23873;DHT22;42884;50.718;4.630;2023-11-21T07:14:19;11.30;99.90
23873;DHT22;42884;50.718;4.630;2023-11-21T07:16:45;11.30;99.90
23873;DHT22;42884;50.718;4.630;2023-11-21T07:19:13;11.30;99.90
23873;DHT22;42884;50.718;4.630;2023-11-21T07:21:41;11.30;99.90
23873;DHT22;42884;50.718;4.630;2023-11-21T07:24:07;11.30;99.90
23873;DHT22;42884;50.718;4.630;2023-11-21T07:26:33;11.40;99.90
23873;DHT22;42884;50.718;4.630;2023-11-21T07:29:00;11.30;99.90
23873;DHT22;42884;50.718;4.630;2023-11-21T07:31:26;11.50;99.90
23873;DHT22;42884;50.718;4.630;2023-11-21T07:33:52;11.40;99.90
23873;DHT22;42884;50.718;4.630;2023-11-21T07:36:18;11.40;99.90
23873;DHT22;42884;50.718;4.630;2023-11-21T07:38:45;11.40;99.90
23873;DHT22;42884;50.718;4.630;2023-11-21T07:41:11;11.50;99.90
23873;DHT22;42884;50.718;4.630;2023-11-21T07:43:41;11.30;99.90
23873;DHT22;42884;50.718;4.630;2023-11-21T07:46:07;11.40;99.90
23873;DHT22;42884;50.718;4.630;2023-11-21T07:48:33;11.50;99.90
23873;DHT22;42884;50.718;4.630;2023-11-21T07:51:00;11.40;99.90
23873;DHT22;42884;50.718;4.630;2023-11-21T07:53:26;11.50;99.90
23873;DHT22;42884;50.718;4.630;2023-11-21T07:55:58;11.50;99.90
23873;DHT22;42884;50.718;4.630;2023-11-21T07:58:24;11.40;99.90
23873;DHT22;42884;50.718;4.630;2023-11-21T08:00:50;11.40;99.90
23873;DHT22;42884;50.718;4.630;2023-11-21T08:03:16;11.40;99.90
23873;DHT22;42884;50.718;4.630;2023-11-21T08:05:41;11.60;99.90
23873;DHT22;42884;50.718;4.630;2023-11-21T08:08:07;11.60;99.90
23873;DHT22;42884;50.718;4.630;2023-11-21T08:10:33;11.60;99.90
23873;DHT22;42884;50.718;4.630;2023-11-21T08:12:59;11.60;99.90
23873;DHT22;42884;50.718;4.630;2023-11-21T08:15:24;11.50;99.90
23873;DHT22;42884;50.718;4.630;2023-11-21T08:17:50;11.60;99.90
23873;DHT22;42884;50.718;4.630;2023-11-21T08:20:16;11.60;99.90
23873;DHT22;42884;50.718;4.630;2023-11-21T08:22:43;11.60;99.90
23873;DHT22;42884;50.718;4.630;2023-11-21T08:25:09;11.60;99.90
23873;DHT22;42884;50.718;4.630;2023-11-21T08:27:35;11.60;99.90
23873;DHT22;42884;50.718;4.630;2023-11-21T08:30:01;11.70;99.90
23873;DHT22;42884;50.718;4.630;2023-11-21T08:32:26;11.70;99.90
23873;DHT22;42884;50.718;4.630;2023-11-21T08:34:52;11.70;99.90
23873;DHT22;42884;50.718;4.630;2023-11-21T08:37:18;11.80;99.90
23873;DHT22;42884;50.718;4.630;2023-11-21T08:39:44;11.80;99.90
23873;DHT22;42884;50.718;4.630;2023-11-21T08:42:09;11.80;99.90
23873;DHT22;42884;50.718;4.630;2023-11-21T08:47:10;11.80;99.90
23873;DHT22;42884;50.718;4.630;2023-11-21T08:49:36;11.90;99.90
23873;DHT22;42884;50.718;4.630;2023-11-21T08:52:03;11.90;99.90
23873;DHT22;42884;50.718;4.630;2023-11-21T08:54:30;11.90;99.90
23873;DHT22;42884;50.718;4.630;2023-11-21T08:56:56;12.00;99.90
23873;DHT22;42884;50.718;4.630;2023-11-21T08:59:26;12.00;99.90
23873;DHT22;42884;50.718;4.630;2023-11-21T09:01:52;12.00;99.90
23873;DHT22;42884;50.718;4.630;2023-11-21T09:04:17;12.00;99.90
23873;DHT22;42884;50.718;4.630;2023-11-21T09:06:43;12.10;99.90
23873;DHT22;42884;50.718;4.630;2023-11-21T09:09:09;12.10;99.90
23873;DHT22;42884;50.718;4.630;2023-11-21T09:11:35;12.10;99.90
23873;DHT22;42884;50.718;4.630;2023-11-21T09:14:01;12.20;99.90
23873;DHT22;42884;50.718;4.630;2023-11-21T09:16:28;12.30;99.90
23873;DHT22;42884;50.718;4.630;2023-11-21T09:18:54;12.30;99.90
23873;DHT22;42884;50.718;4.630;2023-11-21T09:21:20;12.30;99.90
23873;DHT22;42884;50.718;4.630;2023-11-21T09:23:45;12.40;99.90
23873;DHT22;42884;50.718;4.630;2023-11-21T09:26:11;12.30;99.90
23873;DHT22;42884;50.718;4.630;2023-11-21T09:28:37;12.30;99.90
23873;DHT22;42884;50.718;4.630;2023-11-21T09:31:06;12.40;99.90
23873;DHT22;42884;50.718;4.630;2023-11-21T09:33:34;12.30;99.90
23873;DHT22;42884;50.718;4.630;2023-11-21T09:36:00;12.40;99.90
23873;DHT22;42884;50.718;4.630;2023-11-21T09:38:26;12.50;99.90
23873;DHT22;42884;50.718;4.630;2023-11-21T09:40:54;12.40;99.90
23873;DHT22;42884;50.718;4.630;2023-11-21T09:43:20;12.50;99.90
23873;DHT22;42884;50.718;4.630;2023-11-21T09:45:46;12.50;99.90
23873;DHT22;42884;50.718;4.630;2023-11-21T09:48:15;12.50;99.90
23873;DHT22;42884;50.718;4.630;2023-11-21T09:50:42;12.50;99.90
23873;DHT22;42884;50.718;4.630;2023-11-21T09:53:17;12.60;99.90
23873;DHT22;42884;50.718;4.630;2023-11-21T09:55:44;12.60;99.90
23873;DHT22;42884;50.718;4.630;2023-11-21T09:58:10;12.60;99.90
23873;DHT22;42884;50.718;4.630;2023-11-21T10:00:49;12.60;99.90
23873;DHT22;42884;50.718;4.630;2023-11-21T10:03:15;12.60;99.90
23873;DHT22;42884;50.718;4.630;2023-11-21T10:05:44;12.60;99.90
23873;DHT22;42884;50.718;4.630;2023-11-21T10:08:11;12.70;99.90
23873;DHT22;42884;50.718;4.630;2023-11-21T10:10:37;12.70;99.90
23873;DHT22;42884;50.718;4.630;2023-11-21T10:13:04;12.80;99.90
23873;DHT22;42884;50.718;4.630;2023-11-21T10:15:35;12.80;99.90
23873;DHT22;42884;50.718;4.630;2023-11-21T10:18:05;12.80;99.90
23873;DHT22;42884;50.718;4.630;2023-11-21T10:20:32;12.80;99.90
23873;DHT22;42884;50.718;4.630;2023-11-21T10:22:59;12.90;99.90
23873;DHT22;42884;50.718;4.630;2023-11-21T10:25:27;12.70;99.90
23873;DHT22;42884;50.718;4.630;2023-11-21T10:27:57;12.70;99.90
23873;DHT22;42884;50.718;4.630;2023-11-21T10:30:24;12.50;99.90
23873;DHT22;42884;50.718;4.630;2023-11-21T10:32:56;12.50;99.90
23873;DHT22;42884;50.718;4.630;2023-11-21T10:35:23;12.50;99.90
23873;DHT22;42884;50.718;4.630;2023-11-21T10:37:50;12.50;99.90
23873;DHT22;42884;50.718;4.630;2023-11-21T10:40:27;12.40;99.90
23873;DHT22;42884;50.718;4.630;2023-11-21T10:42:54;12.60;99.90
23873;DHT22;42884;50.718;4.630;2023-11-21T10:45:23;12.70;99.90
23873;DHT22;42884;50.718;4.630;2023-11-21T10:47:49;12.70;99.90
23873;DHT22;42884;50.718;4.630;2023-11-21T10:50:18;12.80;99.90
23873;DHT22;42884;50.718;4.630;2023-11-21T10:52:44;12.90;99.90
23873;DHT22;42884;50.718;4.630;2023-11-21T10:55:21;12.90;99.90
23873;DHT22;42884;50.718;4.630;2023-11-21T10:57:49;12.80;99.90
23873;DHT22;42884;50.718;4.630;2023-11-21T11:00:16;12.80;99.90
23873;DHT22;42884;50.718;4.630;2023-11-21T11:02:50;12.80;99.90
23873;DHT22;42884;50.718;4.630;2023-11-21T11:05:18;12.80;99.90
23873;DHT22;42884;50.718;4.630;2023-11-21T11:07:44;12.80;99.90
23873;DHT22;42884;50.718;4.630;2023-11-21T11:10:10;12.80;99.90
23873;DHT22;42884;50.718;4.630;2023-11-21T11:12:40;12.80;99.90
23873;DHT22;42884;50.718;4.630;2023-11-21T11:15:06;12.70;99.90
23873;DHT22;42884;50.718;4.630;2023-11-21T11:17:36;12.80;99.90
23873;DHT22;42884;50.718;4.630;2023-11-21T11:20:04;12.80;99.90
23873;DHT22;42884;50.718;4.630;2023-11-21T11:22:36;12.80;99.90
23873;DHT22;42884;50.718;4.630;2023-11-21T11:27:34;12.70;99.90
23873;DHT22;42884;50.718;4.630;2023-11-21T11:30:09;12.80;99.90
23873;DHT22;42884;50.718;4.630;2023-11-21T11:37:42;12.90;99.90
23873;DHT22;42884;50.718;4.630;2023-11-21T11:40:08;12.90;99.90
23873;DHT22;42884;50.718;4.630;2023-11-21T11:42:36;13.00;99.90
23873;DHT22;42884;50.718;4.630;2023-11-21T11:45:01;13.00;99.90
23873;DHT22;42884;50.718;4.630;2023-11-21T11:47:30;13.00;99.90
23873;DHT22;42884;50.718;4.630;2023-11-21T11:50:03;13.00;99.90
23873;DHT22;42884;50.718;4.630;2023-11-21T11:52:32;13.10;99.90
23873;DHT22;42884;50.718;4.630;2023-11-21T11:54:59;13.10;99.90
23873;DHT22;42884;50.718;4.630;2023-11-21T11:57:25;13.10;99.90
23873;DHT22;42884;50.718;4.630;2023-11-21T12:00:07;13.10;99.90
23873;DHT22;42884;50.718;4.630;2023-11-21T12:02:36;13.00;99.90
23873;DHT22;42884;50.718;4.630;2023-11-21T12:05:12;13.00;99.90
23873;DHT22;42884;50.718;4.630;2023-11-21T12:07:51;13.00;99.90
23873;DHT22;42884;50.718;4.630;2023-11-21T12:10:20;12.90;99.90
23873;DHT22;42884;50.718;4.630;2023-11-21T12:12:47;12.90;99.90
23873;DHT22;42884;50.718;4.630;2023-11-21T12:15:13;12.80;99.90
23873;DHT22;42884;50.718;4.630;2023-11-21T12:17:42;12.80;99.90
23873;DHT22;42884;50.718;4.630;2023-11-21T12:20:09;12.90;99.90
23873;DHT22;42884;50.718;4.630;2023-11-21T12:22:49;12.90;99.90
23873;DHT22;42884;50.718;4.630;2023-11-21T12:27:48;13.00;99.90
23873;DHT22;42884;50.718;4.630;2023-11-21T12:30:15;13.00;99.90
23873;DHT22;42884;50.718;4.630;2023-11-21T12:32:42;13.00;99.90
23873;DHT22;42884;50.718;4.630;2023-11-21T12:35:08;12.90;99.90
23873;DHT22;42884;50.718;4.630;2023-11-21T12:37:36;13.00;99.90
23873;DHT22;42884;50.718;4.630;2023-11-21T12:40:01;13.20;99.90
23873;DHT22;42884;50.718;4.630;2023-11-21T12:42:31;13.20;99.90
23873;DHT22;42884;50.718;4.630;2023-11-21T12:47:54;13.30;99.90
23873;DHT22;42884;50.718;4.630;2023-11-21T12:50:21;13.40;99.90
23873;DHT22;42884;50.718;4.630;2023-11-21T12:52:52;13.60;99.90
23873;DHT22;42884;50.718;4.630;2023-11-21T12:55:19;13.60;99.90
23873;DHT22;42884;50.718;4.630;2023-11-21T12:57:50;13.60;99.90
23873;DHT22;42884;50.718;4.630;2023-11-21T13:00:20;13.50;99.90
23873;DHT22;42884;50.718;4.630;2023-11-21T13:02:56;13.60;99.90
23873;DHT22;42884;50.718;4.630;2023-11-21T13:05:27;13.60;99.90
23873;DHT22;42884;50.718;4.630;2023-11-21T13:07:53;13.70;99.90
23873;DHT22;42884;50.718;4.630;2023-11-21T13:10:22;13.60;99.90
23873;DHT22;42884;50.718;4.630;2023-11-21T13:12:51;13.70;99.90
23873;DHT22;42884;50.718;4.630;2023-11-21T13:15:17;13.70;99.90
23873;DHT22;42884;50.718;4.630;2023-11-21T13:17:46;13.80;99.90
23873;DHT22;42884;50.718;4.630;2023-11-21T13:20:12;13.80;99.90
23873;DHT22;42884;50.718;4.630;2023-11-21T13:22:48;13.80;99.90
23873;DHT22;42884;50.718;4.630;2023-11-21T13:25:15;13.80;99.90
23873;DHT22;42884;50.718;4.630;2023-11-21T13:27:43;13.80;99.90
23873;DHT22;42884;50.718;4.630;2023-11-21T13:30:10;13.80;99.90
23873;DHT22;42884;50.718;4.630;2023-11-21T13:32:35;13.80;99.90
23873;DHT22;42884;50.718;4.630;2023-11-21T13:35:01;13.80;99.90
23873;DHT22;42884;50.718;4.630;2023-11-21T13:37:26;13.70;99.90
23873;DHT22;42884;50.718;4.630;2023-11-21T13:39:53;13.80;99.90
23873;DHT22;42884;50.718;4.630;2023-11-21T13:42:20;13.60;99.90
23873;DHT22;42884;50.718;4.630;2023-11-21T13:44:55;13.60;99.90
23873;DHT22;42884;50.718;4.630;2023-11-21T13:47:21;13.50;99.90
23873;DHT22;42884;50.718;4.630;2023-11-21T13:49:50;13.30;99.90
23873;DHT22;42884;50.718;4.630;2023-11-21T13:52:17;13.30;99.90
23873;DHT22;42884;50.718;4.630;2023-11-21T13:54:46;13.30;99.90
23873;DHT22;42884;50.718;4.630;2023-11-21T13:57:12;13.30;99.90
23873;DHT22;42884;50.718;4.630;2023-11-21T13:59:38;13.20;99.90
23873;DHT22;42884;50.718;4.630;2023-11-21T14:02:04;13.30;99.90
23873;DHT22;42884;50.718;4.630;2023-11-21T14:04:43;13.20;99.90
23873;DHT22;42884;50.718;4.630;2023-11-21T14:07:14;13.30;99.90
23873;DHT22;42884;50.718;4.630;2023-11-21T14:09:52;13.30;99.90
23873;DHT22;42884;50.718;4.630;2023-11-21T14:12:18;13.10;99.90
23873;DHT22;42884;50.718;4.630;2023-11-21T14:14:44;13.20;99.90
23873;DHT22;42884;50.718;4.630;2023-11-21T14:17:10;13.20;99.90
23873;DHT22;42884;50.718;4.630;2023-11-21T14:19:36;13.20;99.90
23873;DHT22;42884;50.718;4.630;2023-11-21T14:22:05;13.20;99.90
23873;DHT22;42884;50.718;4.630;2023-11-21T14:24:33;13.20;99.90
23873;DHT22;42884;50.718;4.630;2023-11-21T14:26:58;13.30;99.90
23873;DHT22;42884;50.718;4.630;2023-11-21T14:29:24;13.30;99.90
23873;DHT22;42884;50.718;4.630;2023-11-21T14:31:50;13.30;99.90
23873;DHT22;42884;50.718;4.630;2023-11-21T14:34:18;13.30;99.90
23873;DHT22;42884;50.718;4.630;2023-11-21T14:36:44;13.20;99.90
23873;DHT22;42884;50.718;4.630;2023-11-21T14:39:10;13.20;99.90
23873;DHT22;42884;50.718;4.630;2023-11-21T14:41:49;13.10;99.90
23873;DHT22;42884;50.718;4.630;2023-11-21T14:44:15;12.90;99.90
23873;DHT22;42884;50.718;4.630;2023-11-21T14:46:41;12.80;99.90
23873;DHT22;42884;50.718;4.630;2023-11-21T14:49:24;12.90;99.90
23873;DHT22;42884;50.718;4.630;2023-11-21T14:51:53;12.90;99.90
23873;DHT22;42884;50.718;4.630;2023-11-21T14:54:29;12.90;99.90
23873;DHT22;42884;50.718;4.630;2023-11-21T14:57:11;13.00;99.90
23873;DHT22;42884;50.718;4.630;2023-11-21T14:59:48;13.00;99.90
23873;DHT22;42884;50.718;4.630;2023-11-21T15:02:17;13.00;99.90
23873;DHT22;42884;50.718;4.630;2023-11-21T15:05:03;12.90;99.90
23873;DHT22;42884;50.718;4.630;2023-11-21T15:07:30;12.90;99.90
23873;DHT22;42884;50.718;4.630;2023-11-21T15:09:56;12.90;99.90
23873;DHT22;42884;50.718;4.630;2023-11-21T15:12:22;12.90;99.90
23873;DHT22;42884;50.718;4.630;2023-11-21T15:14:51;12.90;99.90
23873;DHT22;42884;50.718;4.630;2023-11-21T15:17:22;12.90;99.90
23873;DHT22;42884;50.718;4.630;2023-11-21T15:19:51;12.90;99.90
23873;DHT22;42884;50.718;4.630;2023-11-21T15:22:16;12.80;99.90
23873;DHT22;42884;50.718;4.630;2023-11-21T15:24:45;12.80;99.90
23873;DHT22;42884;50.718;4.630;2023-11-21T15:27:13;12.90;99.90
23873;DHT22;42884;50.718;4.630;2023-11-21T15:29:41;12.90;99.90
23873;DHT22;42884;50.718;4.630;2023-11-21T15:32:07;12.90;99.90
23873;DHT22;42884;50.718;4.630;2023-11-21T15:34:33;12.90;99.90
23873;DHT22;42884;50.718;4.630;2023-11-21T15:36:59;12.80;99.90
23873;DHT22;42884;50.718;4.630;2023-11-21T15:39:27;12.80;99.90
23873;DHT22;42884;50.718;4.630;2023-11-21T15:41:56;12.70;99.90
23873;DHT22;42884;50.718;4.630;2023-11-21T15:44:22;12.60;99.90
23873;DHT22;42884;50.718;4.630;2023-11-21T15:46:49;12.60;99.90
23873;DHT22;42884;50.718;4.630;2023-11-21T15:49:15;12.50;99.90